Time;durP1;ratioP1;P1;durP2;ratioP2;P2;SDS_P1;SDS_P2;PMS_P1;PMS_P2;Temp;Humidity;BMP_temperature;BMP_pressure;BME280_temperature;BME280_humidity;BME280_pressure;Samples;Min_cycle;Max_cycle;Signal;HPM_P1;HPM_P2
2024/01/07 00:00:01;;;;;;;0.50;0.50;;;;;;;-4.09;100.00;102158.31;4997651;28;20045;-74
2024/01/07 00:02:27;;;;;;;0.50;0.50;;;;;;;-4.06;100.00;102168.72;5013715;28;20034;-74
2024/01/07 00:04:53;;;;;;;0.60;0.60;;;;;;;-4.04;100.00;102170.41;4981641;28;20034;-74
2024/01/07 00:07:20;;;;;;;0.60;0.60;;;;;;;-3.88;100.00;102172.56;4981441;28;20037;-74
2024/01/07 00:09:46;;;;;;;0.50;0.50;;;;;;;-3.79;100.00;102182.78;5013510;28;20030;-74
2024/01/07 00:12:12;;;;;;;0.50;0.50;;;;;;;-3.75;100.00;102179.16;4981391;28;20036;-74
2024/01/07 00:14:37;;;;;;;0.50;0.50;;;;;;;-3.84;100.00;102179.44;4997017;28;20030;-74
2024/01/07 00:17:03;;;;;;;0.50;0.50;;;;;;;-3.86;100.00;102176.00;4981195;28;20117;-74
2024/01/07 00:19:31;;;;;;;0.50;0.50;;;;;;;-3.84;100.00;102179.44;4981186;28;20038;-74
2024/01/07 00:21:57;;;;;;;0.50;0.50;;;;;;;-3.79;100.00;102181.00;4981488;28;20040;-74
2024/01/07 00:24:25;;;;;;;0.50;0.50;;;;;;;-3.65;100.00;102183.22;5013509;28;20030;-74
2024/01/07 00:26:51;;;;;;;0.50;0.50;;;;;;;-3.64;100.00;102190.19;4981649;28;20045;-74
2024/01/07 00:29:17;;;;;;;0.50;0.50;;;;;;;-3.72;100.00;102184.31;4981072;28;20112;-74
2024/01/07 00:31:42;;;;;;;0.50;0.50;;;;;;;-3.74;100.00;102191.38;4996961;28;20362;-74
2024/01/07 00:34:08;;;;;;;0.50;0.50;;;;;;;-3.77;100.00;102188.84;4981053;28;20053;-74
2024/01/07 00:36:34;;;;;;;0.50;0.50;;;;;;;-3.77;100.00;102191.47;5013018;28;20082;-74
2024/01/07 00:38:59;;;;;;;0.50;0.50;;;;;;;-3.70;100.00;102193.00;4981096;28;20038;-74
2024/01/07 00:41:25;;;;;;;0.50;0.50;;;;;;;-3.52;100.00;102188.91;4980485;28;20029;-74
2024/01/07 00:43:52;;;;;;;0.50;0.50;;;;;;;-3.36;100.00;102192.78;4980828;28;20481;-74
2024/01/07 00:46:18;;;;;;;0.40;0.40;;;;;;;-3.29;100.00;102193.41;4980842;28;20033;-74
2024/01/07 00:48:43;;;;;;;0.50;0.50;;;;;;;-3.14;100.00;102190.25;4980943;28;20076;-74
2024/01/07 00:51:09;;;;;;;0.57;0.57;;;;;;;-3.00;100.00;102199.44;4980784;28;20030;-74
2024/01/07 00:53:34;;;;;;;0.50;0.50;;;;;;;-2.87;100.00;102195.47;4980691;28;20080;-74
2024/01/07 00:56:00;;;;;;;0.50;0.50;;;;;;;-2.74;100.00;102185.38;4996271;28;20030;-74
2024/01/07 00:58:26;;;;;;;0.50;0.50;;;;;;;-2.58;100.00;102193.59;4981107;28;20075;-74
2024/01/07 01:00:53;;;;;;;0.50;0.50;;;;;;;-2.50;100.00;102184.47;4980594;28;20492;-74
2024/01/07 01:03:19;;;;;;;0.50;0.50;;;;;;;-2.34;100.00;102190.03;4980915;28;20041;-74
2024/01/07 01:05:45;;;;;;;0.50;0.50;;;;;;;-2.27;100.00;102191.53;5012813;28;20034;-74
2024/01/07 01:08:11;;;;;;;0.50;0.50;;;;;;;-2.15;100.00;102200.72;4980469;28;20092;-74
2024/01/07 01:10:37;;;;;;;0.50;0.50;;;;;;;-2.09;100.00;102195.25;4980427;28;20492;-74
2024/01/07 01:13:03;;;;;;;0.50;0.50;;;;;;;-1.99;100.00;102201.00;4996562;28;20040;-74
2024/01/07 01:15:29;;;;;;;0.50;0.50;;;;;;;-1.99;100.00;102199.22;4980427;28;20037;-74
2024/01/07 01:17:54;;;;;;;0.50;0.50;;;;;;;-1.98;100.00;102202.75;4996460;28;20038;-75
2024/01/07 01:20:20;;;;;;;0.50;0.50;;;;;;;-1.97;100.00;102201.81;4979958;28;20084;-75
2024/01/07 01:22:46;;;;;;;0.50;0.50;;;;;;;-1.96;100.00;102206.16;4996079;28;20033;-75
2024/01/07 01:25:11;;;;;;;0.50;0.50;;;;;;;-1.98;100.00;102210.66;4980337;28;20381;-74
2024/01/07 01:27:37;;;;;;;0.50;0.50;;;;;;;-1.94;100.00;102208.75;4996874;28;20181;-74
2024/01/07 01:30:03;;;;;;;0.50;0.50;;;;;;;-1.91;100.00;102209.47;4996310;28;20465;-74
2024/01/07 01:32:29;;;;;;;0.50;0.50;;;;;;;-1.90;100.00;102210.34;4980423;28;20044;-74
2024/01/07 01:34:55;;;;;;;0.50;0.50;;;;;;;-1.90;100.00;102216.47;4996094;28;20030;-74
2024/01/07 01:37:20;;;;;;;0.50;0.50;;;;;;;-1.90;100.00;102213.00;4980228;28;20108;-74
2024/01/07 01:39:47;;;;;;;0.50;0.50;;;;;;;-1.87;100.00;102205.81;4979854;28;20038;-74
2024/01/07 01:42:13;;;;;;;0.50;0.50;;;;;;;-1.86;100.00;102198.75;4980424;28;20092;-75
2024/01/07 01:44:39;;;;;;;0.50;0.50;;;;;;;-1.85;100.00;102214.53;4980070;28;20034;-74
2024/01/07 01:47:06;;;;;;;0.50;0.50;;;;;;;-1.89;100.00;102212.91;4996016;28;20046;-75
2024/01/07 01:49:32;;;;;;;0.50;0.50;;;;;;;-1.89;100.00;102210.28;4979661;28;20121;-74
2024/01/07 01:51:57;;;;;;;0.50;0.50;;;;;;;-1.88;100.00;102205.84;4980856;28;20112;-75
2024/01/07 01:54:23;;;;;;;0.50;0.50;;;;;;;-1.85;100.00;102203.13;4984666;28;20068;-74
2024/01/07 01:56:49;;;;;;;0.50;0.50;;;;;;;-1.80;100.00;102203.78;4983770;28;20503;-74
2024/01/07 01:59:16;;;;;;;0.50;0.50;;;;;;;-1.70;100.00;102205.13;4983470;28;20045;-74
2024/01/07 02:01:41;;;;;;;0.50;0.50;;;;;;;-1.70;100.00;102212.19;4999943;28;20476;-74
2024/01/07 02:04:08;;;;;;;0.50;0.50;;;;;;;-1.72;100.00;102217.53;4983754;28;20034;-74
2024/01/07 02:06:34;;;;;;;0.50;0.50;;;;;;;-1.73;100.00;102212.31;4983736;28;20538;-75
2024/01/07 02:09:00;;;;;;;0.50;0.50;;;;;;;-1.73;100.00;102223.72;4983516;28;20037;-75
2024/01/07 02:11:25;;;;;;;0.50;0.50;;;;;;;-1.72;100.00;102220.19;5015869;28;20392;-74
2024/01/07 02:13:51;;;;;;;0.50;0.50;;;;;;;-1.68;100.00;102221.75;4983645;28;20449;-74
2024/01/07 02:16:17;;;;;;;0.50;0.50;;;;;;;-1.70;100.00;102223.59;4983410;28;20025;-74
2024/01/07 02:18:43;;;;;;;0.50;0.50;;;;;;;-1.71;100.00;102237.72;4983315;28;20029;-75
2024/01/07 02:21:10;;;;;;;0.50;0.50;;;;;;;-1.72;100.00;102235.13;4999325;28;20468;-74
2024/01/07 02:23:36;;;;;;;0.50;0.50;;;;;;;-1.74;100.00;102231.69;4999713;28;20064;-74
2024/01/07 02:26:01;;;;;;;0.50;0.50;;;;;;;-1.74;100.00;102243.09;4983457;28;20033;-74
2024/01/07 02:28:27;;;;;;;0.50;0.50;;;;;;;-1.72;100.00;102243.91;4983320;28;20044;-75
2024/01/07 02:30:53;;;;;;;0.50;0.50;;;;;;;-1.69;100.00;102246.41;5015577;28;20088;-74
2024/01/07 02:33:18;;;;;;;0.50;0.50;;;;;;;-1.68;100.00;102244.63;4983353;28;20176;-75
2024/01/07 02:35:44;;;;;;;0.50;0.50;;;;;;;-1.71;100.00;102250.03;4999412;28;20034;-74
2024/01/07 02:38:10;;;;;;;0.50;0.50;;;;;;;-1.71;100.00;102240.34;4983289;28;20030;-74
2024/01/07 02:40:35;;;;;;;0.50;0.50;;;;;;;-1.77;100.00;102244.09;4983152;28;20113;-74
2024/01/07 02:43:01;;;;;;;0.50;0.50;;;;;;;-1.83;100.00;102254.84;4983100;28;20040;-74
2024/01/07 02:45:27;;;;;;;0.50;0.50;;;;;;;-1.88;100.00;102253.31;4983191;28;20499;-74
2024/01/07 02:47:52;;;;;;;0.50;0.50;;;;;;;-1.88;100.00;102255.94;5015186;28;20026;-74
2024/01/07 02:50:18;;;;;;;0.50;0.50;;;;;;;-1.76;100.00;102258.13;4982920;28;20042;-74
2024/01/07 02:52:44;;;;;;;0.50;0.50;;;;;;;-1.73;100.00;102258.00;4983037;28;20071;-74
2024/01/07 02:55:10;;;;;;;0.50;0.50;;;;;;;-1.77;100.00;102265.19;4982856;28;20037;-74
2024/01/07 02:57:35;;;;;;;0.50;0.50;;;;;;;-1.69;100.00;102266.63;4982613;28;20034;-74
2024/01/07 03:00:02;;;;;;;0.50;0.50;;;;;;;-1.67;100.00;102264.81;4982923;28;20038;-74
2024/01/07 03:02:28;;;;;;;0.50;0.50;;;;;;;-1.69;100.00;102271.91;4998704;28;20481;-74
2024/01/07 03:04:53;;;;;;;0.55;0.55;;;;;;;-1.71;100.00;102271.97;4998751;28;20033;-74
2024/01/07 03:07:19;;;;;;;0.50;0.50;;;;;;;-1.74;100.00;102272.09;4982718;28;20109;-74
2024/01/07 03:09:45;;;;;;;0.50;0.50;;;;;;;-1.78;100.00;102271.34;4982649;28;20107;-74
2024/01/07 03:12:10;;;;;;;0.50;0.50;;;;;;;-1.79;100.00;102263.50;4982662;28;20125;-74
2024/01/07 03:14:36;;;;;;;0.50;0.50;;;;;;;-1.82;100.00;102264.50;4998757;28;20045;-74
2024/01/07 03:17:01;;;;;;;0.50;0.50;;;;;;;-1.83;100.00;102264.53;4982339;28;20061;-74
2024/01/07 03:19:27;;;;;;;0.40;0.40;;;;;;;-1.90;100.00;102269.19;4982547;28;20072;-74
2024/01/07 03:21:53;;;;;;;0.50;0.50;;;;;;;-1.92;100.00;102262.28;4982470;28;20038;-74
2024/01/07 03:24:18;;;;;;;0.50;0.50;;;;;;;-1.92;100.00;102273.66;4998630;28;20033;-74
2024/01/07 03:26:44;;;;;;;0.50;0.50;;;;;;;-1.91;100.00;102277.16;4982372;28;20472;-74
2024/01/07 03:29:10;;;;;;;0.50;0.50;;;;;;;-1.93;100.00;102274.59;4981945;28;20080;-74
2024/01/07 03:31:35;;;;;;;0.50;0.50;;;;;;;-1.94;100.00;102275.50;4998514;28;20044;-74
2024/01/07 03:34:01;;;;;;;0.50;0.50;;;;;;;-1.96;100.00;102273.84;4982372;28;20354;-74
2024/01/07 03:36:26;;;;;;;0.50;0.50;;;;;;;-2.02;100.00;102283.69;4982054;28;20030;-74
2024/01/07 03:38:53;;;;;;;0.50;0.50;;;;;;;-2.05;100.00;102269.78;4982181;28;20128;-74
2024/01/07 03:41:20;;;;;;;0.57;0.57;;;;;;;-2.05;100.00;102275.91;4982264;28;20033;-74
2024/01/07 03:43:46;;;;;;;0.50;0.50;;;;;;;-2.05;100.00;102285.59;4982088;28;20037;-74
2024/01/07 03:46:12;;;;;;;0.50;0.50;;;;;;;-2.08;100.00;102290.97;4982011;28;20030;-74
2024/01/07 03:48:38;;;;;;;0.50;0.50;;;;;;;-2.07;100.00;102293.53;4981634;28;20040;-74
2024/01/07 03:51:04;;;;;;;0.50;0.50;;;;;;;-2.06;100.00;102294.44;4998194;28;20065;-74
2024/01/07 03:53:30;;;;;;;0.50;0.50;;;;;;;-2.09;100.00;102290.13;4998238;28;20031;-74
2024/01/07 03:55:56;;;;;;;0.50;0.50;;;;;;;-2.15;100.00;102294.75;4981742;28;20431;-74
2024/01/07 03:58:22;;;;;;;0.50;0.50;;;;;;;-2.25;100.00;102295.09;4998541;28;20034;-74
2024/01/07 04:00:47;;;;;;;0.50;0.50;;;;;;;-2.41;100.00;102296.53;4997802;28;20427;-74
2024/01/07 04:03:13;;;;;;;0.50;0.50;;;;;;;-2.57;100.00;102296.22;5014120;28;20109;-74
2024/01/07 04:05:38;;;;;;;0.50;0.50;;;;;;;-2.72;100.00;102302.88;4981404;28;20484;-74
2024/01/07 04:08:04;;;;;;;0.50;0.50;;;;;;;-2.81;100.00;102294.44;4981687;28;20439;-74
2024/01/07 04:10:30;;;;;;;0.50;0.50;;;;;;;-2.90;100.00;102299.09;4997385;28;20030;-74
2024/01/07 04:12:55;;;;;;;0.50;0.50;;;;;;;-2.88;100.00;102305.19;4981547;28;20096;-74
2024/01/07 04:15:23;;;;;;;0.50;0.50;;;;;;;-2.93;100.00;102308.88;4980659;28;20041;-74
2024/01/07 04:17:48;;;;;;;0.50;0.50;;;;;;;-2.99;100.00;102311.69;5013737;28;20468;-74
2024/01/07 04:20:14;;;;;;;0.50;0.50;;;;;;;-3.07;100.00;102313.72;5013466;28;20080;-74
2024/01/07 04:22:40;;;;;;;0.40;0.40;;;;;;;-3.11;100.00;102302.44;4981934;28;20388;-74
2024/01/07 04:25:10;;;;;;;0.50;0.50;;;;;;;-3.16;100.00;102312.25;4981343;28;20388;-74
2024/01/07 04:27:36;;;;;;;0.50;0.50;;;;;;;-3.22;100.00;102297.53;4997787;28;20084;-74
2024/01/07 04:30:02;;;;;;;0.50;0.50;;;;;;;-3.33;100.00;102297.88;4981254;28;20026;-74
2024/01/07 04:32:29;;;;;;;0.50;0.50;;;;;;;-3.43;100.00;102303.47;4981000;28;20033;-74
2024/01/07 04:34:56;;;;;;;0.50;0.50;;;;;;;-3.59;100.00;102296.06;4981131;28;20076;-74
2024/01/07 04:37:22;;;;;;;0.50;0.50;;;;;;;-3.68;100.00;102303.34;4980998;28;20034;-74
2024/01/07 04:39:47;;;;;;;0.50;0.50;;;;;;;-3.56;100.00;102316.97;4981018;28;20045;-74
2024/01/07 04:42:13;;;;;;;0.50;0.50;;;;;;;-3.23;100.00;102314.19;4980988;28;20042;-74
2024/01/07 04:44:39;;;;;;;0.50;0.50;;;;;;;-3.13;100.00;102307.75;4981093;28;20087;-74
2024/01/07 04:47:26;;;;;;;0.50;0.50;;;;;;;-3.22;100.00;102305.41;4996630;28;20049;-74
2024/01/07 04:49:52;;;;;;;0.50;0.50;;;;;;;-3.16;100.00;102312.25;4997153;28;20160;-74
2024/01/07 04:52:18;;;;;;;0.50;0.50;;;;;;;-3.14;100.00;102311.28;4997029;28;20128;-74
2024/01/07 04:54:44;;;;;;;0.50;0.50;;;;;;;-3.17;100.00;102308.75;4996921;28;20137;-74
2024/01/07 04:57:09;;;;;;;0.50;0.50;;;;;;;-3.20;100.00;102318.50;4980455;28;20049;-74
2024/01/07 04:59:35;;;;;;;0.50;0.50;;;;;;;-3.31;100.00;102318.84;4980697;28;20048;-74
2024/01/07 05:02:01;;;;;;;0.50;0.50;;;;;;;-3.39;100.00;102318.22;4980709;28;20034;-74
2024/01/07 05:04:26;;;;;;;0.50;0.50;;;;;;;-3.41;100.00;102315.66;4980721;28;20036;-74
2024/01/07 05:06:52;;;;;;;0.50;0.50;;;;;;;-3.44;100.00;102313.13;4980611;28;20484;-74
2024/01/07 05:09:17;;;;;;;0.50;0.50;;;;;;;-3.51;100.00;102319.47;4996582;28;20384;-73
2024/01/07 05:11:43;;;;;;;0.50;0.50;;;;;;;-3.55;100.00;102320.47;4996730;28;20116;-74
2024/01/07 05:14:11;;;;;;;0.50;0.50;;;;;;;-3.60;100.00;102325.00;4980496;28;20033;-74
2024/01/07 05:16:36;;;;;;;0.50;0.50;;;;;;;-3.68;100.00;102327.84;4996358;28;20048;-74
2024/01/07 05:19:02;;;;;;;0.50;0.50;;;;;;;-3.76;100.00;102328.13;4996610;28;20041;-74
2024/01/07 05:21:28;;;;;;;0.50;0.50;;;;;;;-3.90;100.00;102332.03;4996231;28;20389;-74
2024/01/07 05:23:54;;;;;;;0.50;0.50;;;;;;;-3.96;100.00;102330.44;4980142;28;20038;-74
2024/01/07 05:26:19;;;;;;;0.50;0.50;;;;;;;-3.99;100.00;102330.53;4980346;28;20034;-74
2024/01/07 05:28:45;;;;;;;0.50;0.50;;;;;;;-4.14;100.00;102337.06;4980354;28;20481;-73
2024/01/07 05:31:20;;;;;;;0.50;0.50;;;;;;;-4.17;100.00;102338.94;4980315;28;20445;-74
2024/01/07 05:33:45;;;;;;;0.50;0.50;;;;;;;-4.25;100.00;102337.38;5012533;28;20041;-74
2024/01/07 05:36:12;;;;;;;0.50;0.50;;;;;;;-4.19;100.00;102352.09;4996148;28;20492;-74
2024/01/07 05:38:38;;;;;;;0.50;0.50;;;;;;;-4.07;100.00;102346.53;5012215;28;20496;-74
2024/01/07 05:41:04;;;;;;;0.50;0.50;;;;;;;-4.18;100.00;102327.56;4995966;28;20030;-74
2024/01/07 05:43:30;;;;;;;0.50;0.50;;;;;;;-4.23;100.00;102339.97;5012198;28;20504;-74
2024/01/07 05:45:56;;;;;;;0.50;0.50;;;;;;;-4.33;100.00;102354.25;4980090;28;20088;-74
2024/01/07 05:48:22;;;;;;;0.50;0.50;;;;;;;-4.31;100.00;102347.16;4980186;28;20103;-74
2024/01/07 05:50:48;;;;;;;0.50;0.50;;;;;;;-4.39;100.00;102355.28;4996295;28;20053;-74
2024/01/07 05:53:16;;;;;;;0.60;0.60;;;;;;;-4.52;100.00;102364.38;5012378;28;20033;-74
2024/01/07 05:55:42;;;;;;;0.50;0.50;;;;;;;-4.62;100.00;102363.75;4980477;28;20468;-74
2024/01/07 05:58:08;;;;;;;0.50;0.50;;;;;;;-4.50;100.00;102357.31;4979819;28;20042;-74
2024/01/07 06:00:34;;;;;;;0.50;0.50;;;;;;;-4.42;100.00;102366.72;5011964;28;20041;-74
2024/01/07 06:03:00;;;;;;;0.50;0.50;;;;;;;-4.40;100.00;102371.91;4979921;28;20042;-74
2024/01/07 06:05:26;;;;;;;0.50;0.50;;;;;;;-4.38;100.00;102371.91;4979932;28;20042;-74
2024/01/07 06:07:52;;;;;;;0.50;0.50;;;;;;;-4.23;100.00;102366.25;4996020;28;20042;-74
2024/01/07 06:10:17;;;;;;;0.50;0.50;;;;;;;-4.21;100.00;102367.03;4979823;28;20044;-74
2024/01/07 06:12:43;;;;;;;0.50;0.50;;;;;;;-4.19;100.00;102367.88;4979883;28;20125;-73
2024/01/07 06:15:09;;;;;;;0.60;0.60;;;;;;;-4.18;100.00;102374.84;4980100;28;20053;-73
2024/01/07 06:17:35;;;;;;;0.50;0.50;;;;;;;-4.18;100.00;102372.22;4995685;28;20362;-74
2024/01/07 06:20:00;;;;;;;0.50;0.50;;;;;;;-4.13;100.00;102378.19;4979738;28;20060;-74
2024/01/07 06:22:26;;;;;;;0.50;0.50;;;;;;;-4.05;100.00;102371.00;4979736;28;20046;-73
2024/01/07 06:24:52;;;;;;;0.50;0.50;;;;;;;-4.11;100.00;102368.50;4996333;28;20050;-73
2024/01/07 06:27:17;;;;;;;0.50;0.50;;;;;;;-4.10;100.00;102378.13;4979726;28;20512;-73
2024/01/07 06:29:43;;;;;;;0.50;0.50;;;;;;;-4.14;100.00;102379.09;4979403;28;20377;-74
2024/01/07 06:32:09;;;;;;;0.50;0.50;;;;;;;-4.22;100.00;102387.19;4980530;28;20038;-74
2024/01/07 06:34:35;;;;;;;0.50;0.50;;;;;;;-4.32;100.00;102388.34;4979778;28;20045;-73
2024/01/07 06:37:01;;;;;;;0.50;0.50;;;;;;;-4.39;100.00;102397.28;4979336;28;20034;-73
2024/01/07 06:39:27;;;;;;;0.50;0.50;;;;;;;-4.48;100.00;102398.38;5014564;28;20133;-73
2024/01/07 06:41:53;;;;;;;0.50;0.50;;;;;;;-4.54;100.00;102393.28;4983695;28;20373;-73
2024/01/07 06:44:19;;;;;;;0.50;0.50;;;;;;;-4.55;100.00;102390.69;4983706;28;20084;-73
2024/01/07 06:47:14;;;;;;;0.50;0.50;;;;;;;-4.47;100.00;102388.75;4982853;28;20072;-73
2024/01/07 06:49:59;;;;;;;0.60;0.60;;;;;;;-4.58;100.00;102389.00;5001595;28;20127;-73
2024/01/07 06:52:24;;;;;;;0.50;0.50;;;;;;;-4.66;100.00;102389.22;4983785;28;20081;-73
2024/01/07 06:54:50;;;;;;;0.50;0.50;;;;;;;-4.68;100.00;102391.00;4982951;28;20384;-74
2024/01/07 06:57:15;;;;;;;0.50;0.50;;;;;;;-4.67;100.00;102408.47;4982538;28;20061;-73
2024/01/07 06:59:41;;;;;;;0.50;0.50;;;;;;;-4.68;100.00;102404.13;4982822;28;20095;-73
2024/01/07 07:02:07;;;;;;;0.50;0.50;;;;;;;-4.64;100.00;102408.38;4982765;28;20034;-73
2024/01/07 07:04:33;;;;;;;0.50;0.50;;;;;;;-4.59;100.00;102405.66;4998943;28;20044;-73
2024/01/07 07:07:00;;;;;;;0.50;0.50;;;;;;;-4.52;100.00;102404.63;4982406;28;20389;-73
2024/01/07 07:09:25;;;;;;;0.50;0.50;;;;;;;-4.40;100.00;102400.81;4982901;28;20041;-73
2024/01/07 07:11:51;;;;;;;0.50;0.50;;;;;;;-4.32;100.00;102408.47;4982742;28;20037;-74
2024/01/07 07:14:17;;;;;;;0.50;0.50;;;;;;;-4.28;100.00;102404.88;4982501;28;20491;-73
2024/01/07 07:16:42;;;;;;;0.50;0.50;;;;;;;-4.29;100.00;102417.13;4982298;28;20108;-73
2024/01/07 07:19:08;;;;;;;0.50;0.50;;;;;;;-4.30;100.00;102406.69;4982411;28;20044;-73
2024/01/07 07:21:34;;;;;;;0.50;0.50;;;;;;;-4.36;100.00;102410.34;4982391;28;20061;-73
2024/01/07 07:23:59;;;;;;;0.60;0.60;;;;;;;-4.50;100.00;102396.69;4982356;28;20465;-73
2024/01/07 07:26:27;;;;;;;0.50;0.50;;;;;;;-4.59;100.00;102408.28;4982282;28;20199;-73
2024/01/07 07:28:53;;;;;;;0.50;0.50;;;;;;;-4.78;100.00;102404.41;4982718;28;20037;-73
2024/01/07 07:31:20;;;;;;;0.50;0.50;;;;;;;-4.80;100.00;102404.41;4998547;28;20136;-73
2024/01/07 07:33:46;;;;;;;0.50;0.50;;;;;;;-4.72;100.00;102404.22;4998312;28;20048;-73
2024/01/07 07:36:11;;;;;;;0.50;0.50;;;;;;;-4.66;100.00;102411.94;4997802;28;20030;-73
2024/01/07 07:38:37;;;;;;;0.50;0.50;;;;;;;-4.66;100.00;102407.59;4982117;28;20038;-73
2024/01/07 07:41:03;;;;;;;0.50;0.50;;;;;;;-4.61;100.00;102410.06;4998330;28;20455;-73
2024/01/07 07:43:29;;;;;;;0.50;0.50;;;;;;;-4.56;100.00;102420.47;4982519;28;20424;-73
2024/01/07 07:45:55;;;;;;;0.50;0.50;;;;;;;-4.58;100.00;102417.88;4998197;28;20034;-73
2024/01/07 07:48:21;;;;;;;0.50;0.50;;;;;;;-4.62;100.00;102413.63;4997948;28;20080;-73
2024/01/07 07:50:49;;;;;;;0.50;0.50;;;;;;;-4.62;100.00;102418.00;4980754;28;20132;-73
2024/01/07 07:53:15;;;;;;;0.60;0.60;;;;;;;-4.76;100.00;102421.81;4981769;28;20065;-73
2024/01/07 07:55:40;;;;;;;0.50;0.50;;;;;;;-4.77;100.00;102416.59;4981721;28;20456;-73
2024/01/07 07:58:07;;;;;;;0.50;0.50;;;;;;;-4.85;100.00;102414.16;4997901;28;20041;-73
2024/01/07 08:00:32;;;;;;;0.50;0.50;;;;;;;-4.97;100.00;102407.44;4997674;28;20401;-73
2024/01/07 08:02:58;;;;;;;0.60;0.60;;;;;;;-5.04;100.00;102411.09;4997818;28;20029;-73
2024/01/07 08:05:23;;;;;;;0.60;0.60;;;;;;;-5.16;100.00;102417.50;4981695;28;20045;-73
2024/01/07 08:07:49;;;;;;;0.50;0.50;;;;;;;-5.32;100.00;102416.97;4981660;28;20041;-73
2024/01/07 08:10:15;;;;;;;0.50;0.50;;;;;;;-5.35;100.00;102419.63;4982342;28;20034;-73
2024/01/07 08:12:42;;;;;;;0.50;0.50;;;;;;;-5.25;100.00;102420.31;5013772;28;20037;-73
2024/01/07 08:15:08;;;;;;;0.50;0.50;;;;;;;-5.30;100.00;102423.03;4997137;28;20029;-73
2024/01/07 08:17:33;;;;;;;0.60;0.60;;;;;;;-5.42;100.00;102428.56;4980953;28;20026;-73
2024/01/07 08:20:01;;;;;;;0.50;0.50;;;;;;;-5.54;100.00;102431.41;4997067;28;20083;-74
2024/01/07 08:22:26;;;;;;;0.50;0.50;;;;;;;-5.58;100.00;102442.88;4981443;28;20172;-73
2024/01/07 08:24:53;;;;;;;0.60;0.60;;;;;;;-5.56;100.00;102443.69;4980952;28;20113;-73
2024/01/07 08:27:19;;;;;;;0.60;0.60;;;;;;;-5.61;100.00;102437.66;5013181;28;20064;-73
2024/01/07 08:29:45;;;;;;;0.60;0.60;;;;;;;-5.58;100.00;102441.09;4997241;28;20124;-73
2024/01/07 08:32:12;;;;;;;0.50;0.50;;;;;;;-5.50;100.00;102451.44;4981052;28;20038;-74
2024/01/07 08:34:39;;;;;;;0.50;0.50;;;;;;;-5.46;100.00;102442.59;4996737;28;20109;-74
2024/01/07 08:37:07;;;;;;;0.50;0.50;;;;;;;-5.36;100.00;102448.53;4996955;28;20034;-74
2024/01/07 08:39:33;;;;;;;0.50;0.50;;;;;;;-5.30;100.00;102457.09;4980897;28;20046;-73
2024/01/07 08:41:59;;;;;;;0.50;0.50;;;;;;;-5.26;100.00;102457.06;4997054;28;20053;-73
2024/01/07 08:44:24;;;;;;;0.50;0.50;;;;;;;-5.22;100.00;102454.31;4980954;28;20176;-73
2024/01/07 08:46:50;;;;;;;0.50;0.50;;;;;;;-5.10;100.00;102455.84;4997058;28;20128;-73
2024/01/07 08:49:16;;;;;;;0.60;0.60;;;;;;;-4.95;100.00;102459.88;4996950;28;20033;-74
2024/01/07 08:51:42;;;;;;;0.50;0.50;;;;;;;-4.98;100.00;102463.41;5014495;28;20038;-73
2024/01/07 08:54:08;;;;;;;0.50;0.50;;;;;;;-5.01;100.00;102463.50;4999054;28;20543;-74
2024/01/07 08:56:33;;;;;;;0.50;0.50;;;;;;;-4.98;100.00;102465.19;4981488;28;20116;-74
2024/01/07 08:58:59;;;;;;;0.50;0.50;;;;;;;-5.02;100.00;102467.03;4996830;28;20393;-73
2024/01/07 09:01:25;;;;;;;0.50;0.50;;;;;;;-5.00;100.00;102467.84;4980278;28;20073;-74
2024/01/07 09:03:50;;;;;;;0.60;0.60;;;;;;;-4.83;100.00;102477.09;4980589;28;20034;-73
2024/01/07 09:06:16;;;;;;;0.50;0.50;;;;;;;-4.53;100.00;102479.00;4980534;28;20049;-73
2024/01/07 09:08:42;;;;;;;0.50;0.50;;;;;;;-4.25;100.00;102486.22;4980670;28;20044;-73
2024/01/07 09:11:12;;;;;;;0.50;0.50;;;;;;;-4.11;100.00;102491.13;4996160;28;20025;-73
2024/01/07 09:13:38;;;;;;;0.50;0.50;;;;;;;-4.08;100.00;102489.28;5013355;28;20026;-73
2024/01/07 09:16:04;;;;;;;0.50;0.50;;;;;;;-4.04;100.00;102483.06;4980278;28;20523;-74
2024/01/07 09:18:30;;;;;;;0.50;0.50;;;;;;;-3.93;100.00;102477.50;5012448;28;20060;-74
2024/01/07 09:20:57;;;;;;;0.50;0.50;;;;;;;-3.90;100.00;102492.34;4996675;28;20088;-74
2024/01/07 09:23:23;;;;;;;0.50;0.50;;;;;;;-3.94;100.00;102493.31;4980395;28;20041;-73
2024/01/07 09:25:49;;;;;;;0.50;0.50;;;;;;;-3.90;100.00;102487.94;4964389;28;20049;-74
2024/01/07 09:28:15;;;;;;;0.50;0.50;;;;;;;-3.79;100.00;102496.41;4996397;28;20073;-73
2024/01/07 09:30:40;;;;;;;0.60;0.60;;;;;;;-3.65;100.00;102492.53;4980240;28;20042;-73
2024/01/07 09:33:09;;;;;;;0.50;0.50;;;;;;;-3.40;100.00;102495.34;4980012;28;20049;-73
2024/01/07 09:36:01;;;;;;;0.50;0.50;;;;;;;-3.13;100.00;102498.97;5012174;28;20036;-74
2024/01/07 09:38:36;;;;;;;0.50;0.50;;;;;;;-2.98;100.00;102492.41;5012686;28;20034;-73
2024/01/07 09:41:18;;;;;;;0.50;0.50;;;;;;;-2.78;100.00;102499.66;5012351;28;20030;-73
2024/01/07 09:43:44;;;;;;;0.50;0.50;;;;;;;-2.52;100.00;102502.34;4996283;28;20077;-73
2024/01/07 09:46:09;;;;;;;0.50;0.50;;;;;;;-2.40;100.00;102495.00;4996060;28;20097;-74
2024/01/07 09:48:35;;;;;;;0.50;0.50;;;;;;;-2.27;100.00;102499.81;4980105;28;20061;-73
2024/01/07 09:51:01;;;;;;;0.50;0.50;;;;;;;-2.12;100.00;102500.19;4979865;28;20037;-73
2024/01/07 09:53:33;;;;;;;0.52;0.52;;;;;;;-2.08;100.00;102509.72;4980037;28;20046;-73
2024/01/07 09:56:12;;;;;;;0.50;0.50;;;;;;;-2.07;100.00;102506.16;4964290;28;20477;-73
2024/01/07 09:58:38;;;;;;;0.50;0.50;;;;;;;-1.89;100.00;102507.34;5012535;28;20412;-74
2024/01/07 10:01:04;;;;;;;0.50;0.50;;;;;;;-1.77;100.00;102509.56;4979979;28;20045;-73
2024/01/07 10:03:30;;;;;;;0.50;0.50;;;;;;;-1.69;100.00;102511.91;4980061;28;20038;-73
2024/01/07 10:05:56;;;;;;;0.50;0.50;;;;;;;-1.56;100.00;102516.72;4979975;28;20039;-73
2024/01/07 10:08:22;;;;;;;0.50;0.50;;;;;;;-1.36;100.00;102515.97;4979716;28;20543;-74
2024/01/07 10:10:53;;;;;;;0.50;0.50;;;;;;;-1.25;100.00;102517.38;4980495;28;20037;-74
2024/01/07 10:13:20;;;;;;;0.50;0.50;;;;;;;-1.26;100.00;102526.22;4997819;28;20054;-73
2024/01/07 10:15:46;;;;;;;0.50;0.50;;;;;;;-1.26;100.00;102524.44;4999527;28;20644;-74
2024/01/07 10:18:14;;;;;;;0.50;0.50;;;;;;;-1.23;100.00;102529.59;4982456;28;20064;-74
2024/01/07 10:20:39;;;;;;;0.50;0.50;;;;;;;-1.15;100.00;102529.31;4998634;28;20030;-74
2024/01/07 10:23:07;;;;;;;0.50;0.50;;;;;;;-1.07;100.00;102535.16;4983434;28;20436;-73
2024/01/07 10:25:33;;;;;;;0.60;0.60;;;;;;;-1.00;100.00;102535.81;5015736;28;20030;-74
2024/01/07 10:28:01;;;;;;;0.50;0.50;;;;;;;-0.91;100.00;102522.25;4999484;28;20073;-74
2024/01/07 10:30:28;;;;;;;0.50;0.50;;;;;;;-0.82;100.00;102535.13;4999597;28;20038;-74
2024/01/07 10:33:03;;;;;;;0.50;0.50;;;;;;;-0.81;100.00;102541.25;4999403;28;20129;-73
2024/01/07 10:35:36;;;;;;;0.50;0.50;;;;;;;-0.78;100.00;102531.44;4983144;28;20030;-74
2024/01/07 10:38:02;;;;;;;0.50;0.50;;;;;;;-0.73;100.00;102531.25;5015530;28;20084;-74
2024/01/07 10:40:32;;;;;;;0.50;0.50;;;;;;;-0.73;100.00;102529.47;4983147;28;20530;-74
2024/01/07 10:42:58;;;;;;;0.50;0.50;;;;;;;-0.75;100.00;102536.59;4983278;28;20034;-74
2024/01/07 10:45:23;;;;;;;0.40;0.40;;;;;;;-0.70;100.00;102533.78;4983019;28;20034;-73
2024/01/07 10:47:53;;;;;;;0.50;0.50;;;;;;;-0.70;100.00;102537.28;4982640;28;20044;-74
2024/01/07 10:50:20;;;;;;;0.50;0.50;;;;;;;-0.67;100.00;102533.66;4983322;28;20045;-74
2024/01/07 10:52:50;;;;;;;0.50;0.50;;;;;;;-0.56;100.00;102542.00;4999008;28;20485;-74
2024/01/07 10:55:18;;;;;;;0.50;0.50;;;;;;;-0.51;100.00;102545.34;5015536;28;20045;-74
2024/01/07 10:57:49;;;;;;;0.50;0.50;;;;;;;-0.41;100.00;102547.63;5015000;28;20084;-74
2024/01/07 11:00:18;;;;;;;0.50;0.50;;;;;;;-0.30;100.00;102546.28;4999174;28;20034;-74
2024/01/07 11:02:52;;;;;;;0.50;0.50;;;;;;;-0.13;100.00;102550.91;4999515;28;20034;-74
2024/01/07 11:05:29;;;;;;;0.50;0.50;;;;;;;-0.06;100.00;102552.34;4998928;28;20040;-74
2024/01/07 11:08:05;;;;;;;0.50;0.50;;;;;;;-0.08;100.00;102554.22;4998713;28;20048;-74
2024/01/07 11:10:46;;;;;;;0.50;0.50;;;;;;;0.05;100.00;102559.81;4998654;28;20033;-74
2024/01/07 11:13:31;;;;;;;0.60;0.60;;;;;;;-0.02;100.00;102553.94;5014869;28;20396;-74